Seal Rock, Oregon
Current Conditions -  °F | °C
As of 6:35 AM on Friday 28 Nov 2014 (Local Time) from KONP Reporting Station
Moderate Rain Moderate Rain  
Wind Chill: 54°   Ceiling: 400
Heat Index: 54°   Visibility: 2.5mi
Dew Point: 54°   Wind: 24mph
Humidity: 100%   Direction: 200°SSW
Pressure: 29.7"   Gusts: 38mph
Location:  44.49°N, 124.08°W
Report Text: KONP 281435Z AUTO 20021G33KT 2 1/2SM RA OVC004 12/12 A2970 RMK AO2 P0002
Loading
Personal Weather Stations






























Interactive Weather Map New forecast layout! Learn more

10-Day Weather Forecast

Advertisements
Track Severe Weather on mobile